createdAt,value
2022-10-26T00:01:08.736Z,15.80
2022-10-26T00:03:36.624Z,15.50
2022-10-26T00:06:15.682Z,15.60
2022-10-26T00:08:43.780Z,15.80
2022-10-26T00:11:12.255Z,15.40
2022-10-26T00:13:50.988Z,15.60
2022-10-26T00:16:25.061Z,15.60
2022-10-26T00:18:52.604Z,15.70
2022-10-26T00:23:47.773Z,15.90
2022-10-26T00:28:42.751Z,15.70
2022-10-26T00:31:14.176Z,15.80
2022-10-26T00:33:41.854Z,15.80
2022-10-26T00:36:10.323Z,15.80
2022-10-26T00:38:38.050Z,15.80
2022-10-26T00:41:05.589Z,16.20
2022-10-26T00:43:35.853Z,16.20
2022-10-26T00:46:06.888Z,15.90
2022-10-26T00:48:41.090Z,15.90
2022-10-26T00:51:37.661Z,15.90
2022-10-26T00:54:09.131Z,15.90
2022-10-26T00:56:36.610Z,15.80
2022-10-26T00:59:07.911Z,15.90
2022-10-26T01:01:38.242Z,15.70
2022-10-26T01:06:35.614Z,16.20
2022-10-26T01:09:03.925Z,16.20
2022-10-26T01:11:31.348Z,16.10
2022-10-26T01:14:00.876Z,15.80
2022-10-26T01:17:13.055Z,15.70
2022-10-26T01:19:51.894Z,16.10
2022-10-26T01:22:48.390Z,16.00
2022-10-26T01:25:41.013Z,16.00
2022-10-26T01:28:24.274Z,15.80
2022-10-26T01:30:53.359Z,15.90
2022-10-26T01:33:46.933Z,15.90
2022-10-26T01:36:27.567Z,15.90
2022-10-26T01:39:13.169Z,16.00
2022-10-26T01:41:47.700Z,16.00
2022-10-26T01:44:25.663Z,15.90
2022-10-26T01:46:55.377Z,15.80
2022-10-26T01:49:27.135Z,16.00
2022-10-26T01:54:22.029Z,16.20
2022-10-26T01:56:57.459Z,16.30
2022-10-26T01:59:30.703Z,15.90
2022-10-26T02:04:44.204Z,15.90
2022-10-26T02:07:15.580Z,15.90
2022-10-26T02:09:48.619Z,16.00
2022-10-26T02:12:33.633Z,15.90
2022-10-26T02:15:14.163Z,15.90
2022-10-26T02:20:14.162Z,16.00
2022-10-26T02:22:46.669Z,15.90
2022-10-26T02:25:33.770Z,16.60
2022-10-26T02:28:06.011Z,15.90
2022-10-26T02:30:35.236Z,15.90
2022-10-26T02:33:05.430Z,15.90
2022-10-26T02:35:36.912Z,15.90
2022-10-26T02:38:08.003Z,15.90
2022-10-26T02:43:08.286Z,15.80
2022-10-26T02:45:43.031Z,15.80
2022-10-26T02:50:57.789Z,15.90
2022-10-26T02:53:38.991Z,16.00
2022-10-26T02:56:20.304Z,15.60
2022-10-26T02:58:53.315Z,15.60
2022-10-26T03:01:21.255Z,15.60
2022-10-26T03:03:48.906Z,15.60
2022-10-26T03:06:23.408Z,15.60
2022-10-26T03:13:47.045Z,15.40
2022-10-26T03:21:09.846Z,15.50
2022-10-26T03:23:37.199Z,15.50
2022-10-26T03:26:04.756Z,15.60
2022-10-26T03:28:31.990Z,15.50
2022-10-26T03:30:59.223Z,15.60
2022-10-26T03:35:56.848Z,15.60
2022-10-26T03:40:52.640Z,15.40
2022-10-26T03:43:20.135Z,15.50
2022-10-26T03:48:15.579Z,15.50
2022-10-26T03:53:11.279Z,15.30
2022-10-26T03:55:38.517Z,15.50
2022-10-26T03:58:05.841Z,15.50
2022-10-26T04:00:33.155Z,15.60
2022-10-26T04:03:00.759Z,15.60
2022-10-26T04:05:29.398Z,15.70
2022-10-26T04:08:03.162Z,15.80
2022-10-26T04:10:31.329Z,15.80
2022-10-26T04:13:01.874Z,15.90
2022-10-26T04:15:29.676Z,16.00
2022-10-26T04:18:01.616Z,16.00
2022-10-26T04:20:31.097Z,16.10
2022-10-26T04:23:03.068Z,16.20
2022-10-26T04:25:33.226Z,16.20
2022-10-26T04:28:03.044Z,16.20
2022-10-26T04:30:31.532Z,16.30
2022-10-26T04:32:58.942Z,16.30
2022-10-26T04:35:27.056Z,16.30
2022-10-26T04:38:12.501Z,16.40
2022-10-26T04:40:39.859Z,16.40
2022-10-26T04:48:07.766Z,16.50
2022-10-26T04:50:35.634Z,16.50
2022-10-26T04:53:05.473Z,16.50
2022-10-26T04:55:33.038Z,16.50
2022-10-26T04:58:01.538Z,16.30
2022-10-26T05:00:33.051Z,16.50
2022-10-26T05:03:05.746Z,16.60
2022-10-26T05:05:35.631Z,16.60
2022-10-26T05:08:03.219Z,16.60
2022-10-26T05:10:30.726Z,16.60
2022-10-26T05:13:00.218Z,16.60
2022-10-26T05:15:28.248Z,16.60
2022-10-26T05:17:57.604Z,16.50
2022-10-26T05:20:31.166Z,16.30
2022-10-26T05:23:01.081Z,16.30
2022-10-26T05:25:30.631Z,16.30
2022-10-26T05:28:02.956Z,16.20
2022-10-26T05:33:03.240Z,16.20
2022-10-26T05:35:31.966Z,16.20
2022-10-26T05:38:00.251Z,16.20
2022-10-26T05:40:28.002Z,16.20
2022-10-26T05:43:03.391Z,16.10
2022-10-26T05:45:30.833Z,16.60
2022-10-26T05:55:26.295Z,16.00
2022-10-26T05:57:53.875Z,16.00
2022-10-26T06:00:23.737Z,16.00
2022-10-26T06:03:02.947Z,16.00
2022-10-26T06:05:37.316Z,16.00
2022-10-26T06:08:10.545Z,16.00
2022-10-26T06:10:39.308Z,16.10
2022-10-26T06:16:09.855Z,16.10
2022-10-26T06:19:14.350Z,16.20
2022-10-26T06:21:51.294Z,16.20
2022-10-26T06:24:47.559Z,16.20
2022-10-26T06:27:19.887Z,16.10
2022-10-26T06:29:59.167Z,16.60
2022-10-26T06:32:26.891Z,15.90
2022-10-26T06:35:14.966Z,16.00
2022-10-26T06:37:46.469Z,15.80
2022-10-26T06:40:16.170Z,16.20
2022-10-26T06:42:44.006Z,16.10
2022-10-26T06:45:15.789Z,15.90
2022-10-26T06:47:49.131Z,16.00
2022-10-26T06:50:37.480Z,16.10
2022-10-26T06:53:14.074Z,15.90
2022-10-26T06:55:44.276Z,15.90
2022-10-26T06:58:18.348Z,16.00
2022-10-26T07:00:51.455Z,16.00
2022-10-26T07:03:18.757Z,16.00
2022-10-26T07:05:46.497Z,16.00
2022-10-26T07:08:14.079Z,16.00
2022-10-26T07:10:42.282Z,16.50
2022-10-26T07:13:10.795Z,16.10
2022-10-26T07:15:39.403Z,16.10
2022-10-26T07:18:08.129Z,16.10
2022-10-26T07:20:40.143Z,16.10
2022-10-26T07:23:11.188Z,16.30
2022-10-26T07:28:10.630Z,16.10
2022-10-26T07:30:39.464Z,16.10
2022-10-26T07:33:12.579Z,16.20
2022-10-26T07:35:40.562Z,16.10
2022-10-26T07:38:08.611Z,16.10
2022-10-26T07:40:38.183Z,16.10
2022-10-26T07:48:01.076Z,16.00
2022-10-26T07:50:28.775Z,16.20
2022-10-26T07:52:56.085Z,16.20
2022-10-26T07:55:23.518Z,16.30
2022-10-26T07:57:54.572Z,16.40
2022-10-26T08:00:22.810Z,16.40
2022-10-26T08:02:50.322Z,16.40
2022-10-26T08:07:46.068Z,16.30
2022-10-26T08:10:15.151Z,16.70
2022-10-26T08:12:44.234Z,16.70
2022-10-26T08:15:11.920Z,16.60
2022-10-26T08:17:39.363Z,16.70
2022-10-26T08:20:07.535Z,16.70
2022-10-26T08:25:03.937Z,16.80
2022-10-26T08:27:31.330Z,16.70
2022-10-26T08:29:58.603Z,16.80
2022-10-26T08:32:26.019Z,16.70
2022-10-26T08:34:53.464Z,16.80
2022-10-26T08:37:21.231Z,16.80
2022-10-26T08:39:50.609Z,16.90
2022-10-26T08:42:33.246Z,16.90
2022-10-26T08:45:11.014Z,16.90
2022-10-26T08:47:46.504Z,17.00
2022-10-26T08:50:25.267Z,17.00
2022-10-26T08:53:03.661Z,17.10
2022-10-26T08:58:18.582Z,17.20
2022-10-26T09:00:49.828Z,17.20
2022-10-26T09:03:18.773Z,17.20
2022-10-26T09:06:04.064Z,17.30
2022-10-26T09:08:43.861Z,17.40
2022-10-26T09:11:32.866Z,17.40
2022-10-26T09:14:36.414Z,19.40
2022-10-26T09:17:16.850Z,17.50
2022-10-26T09:20:00.639Z,17.50
2022-10-26T09:22:31.042Z,17.60
2022-10-26T09:25:06.864Z,17.50
2022-10-26T09:27:42.595Z,17.60
2022-10-26T09:30:15.944Z,17.60
2022-10-26T09:32:53.711Z,17.80
2022-10-26T09:38:35.123Z,17.80
2022-10-26T09:41:10.178Z,17.80
2022-10-26T09:43:54.179Z,17.60
2022-10-26T09:46:47.093Z,18.00
2022-10-26T09:49:17.564Z,17.40
2022-10-26T09:51:46.354Z,17.70
2022-10-26T09:54:18.651Z,17.70
2022-10-26T09:56:51.327Z,17.80
2022-10-26T09:59:22.136Z,17.80
2022-10-26T10:01:49.631Z,17.50
2022-10-26T10:06:46.025Z,17.50
2022-10-26T10:09:19.317Z,17.60
2022-10-26T10:16:57.066Z,17.70
2022-10-26T10:19:33.379Z,18.20
2022-10-26T10:22:08.826Z,18.30
2022-10-26T10:24:39.942Z,18.90
2022-10-26T10:27:15.165Z,18.70
2022-10-26T10:29:49.899Z,18.60
2022-10-26T10:34:45.059Z,18.70
2022-10-26T10:37:29.574Z,18.70
2022-10-26T10:40:28.015Z,18.70
2022-10-26T10:43:03.401Z,18.70
2022-10-26T10:45:31.557Z,18.50
2022-10-26T10:48:02.995Z,18.90
2022-10-26T10:50:32.072Z,18.90
2022-10-26T10:53:22.716Z,18.70
2022-10-26T10:56:10.734Z,18.80
2022-10-26T10:59:24.331Z,19.00
2022-10-26T11:02:29.298Z,19.50
2022-10-26T11:05:30.390Z,19.30
2022-10-26T11:08:18.150Z,19.50
2022-10-26T11:10:50.146Z,19.70
2022-10-26T11:13:24.056Z,19.70
2022-10-26T11:15:58.331Z,19.70
2022-10-26T11:18:32.674Z,19.90
2022-10-26T11:21:17.557Z,20.10
2022-10-26T11:24:12.908Z,20.40
2022-10-26T11:26:52.679Z,20.50
2022-10-26T11:29:48.362Z,20.70
2022-10-26T11:32:24.139Z,20.80
2022-10-26T11:35:28.342Z,20.90
2022-10-26T11:38:23.923Z,21.20
2022-10-26T11:41:13.033Z,21.60
2022-10-26T11:43:54.896Z,21.40
2022-10-26T11:46:54.477Z,21.40
2022-10-26T11:49:29.998Z,21.30
2022-10-26T11:52:17.884Z,21.30
2022-10-26T11:54:47.821Z,21.70
2022-10-26T11:57:16.667Z,21.70
2022-10-26T11:59:55.044Z,21.80
2022-10-26T12:02:24.680Z,21.50
2022-10-26T12:05:17.154Z,21.40
2022-10-26T12:07:55.778Z,21.60
2022-10-26T12:10:40.107Z,21.60
2022-10-26T12:13:25.690Z,21.60
2022-10-26T12:16:19.183Z,21.70
2022-10-26T12:18:58.757Z,21.50
2022-10-26T12:21:30.652Z,21.60
2022-10-26T12:24:22.353Z,21.60
2022-10-26T12:27:01.943Z,21.80
2022-10-26T12:29:36.959Z,21.80
2022-10-26T12:32:25.148Z,21.90
2022-10-26T12:34:54.889Z,21.80
2022-10-26T12:37:37.610Z,21.60
2022-10-26T12:40:33.119Z,21.10
2022-10-26T12:43:26.735Z,20.40
2022-10-26T12:46:12.416Z,20.40
2022-10-26T12:48:40.075Z,20.10
2022-10-26T12:51:49.466Z,19.80
2022-10-26T12:57:45.480Z,19.70
2022-10-26T13:00:25.341Z,20.00
2022-10-26T13:03:11.641Z,20.60
2022-10-26T13:05:58.130Z,20.50
2022-10-26T13:08:25.789Z,20.80
2022-10-26T13:11:12.954Z,21.10
2022-10-26T13:13:41.449Z,21.20
2022-10-26T13:16:13.015Z,21.10
2022-10-26T13:18:48.387Z,21.00
2022-10-26T13:21:18.198Z,20.80
2022-10-26T13:23:46.636Z,20.40
2022-10-26T13:26:19.350Z,19.90
2022-10-26T13:28:52.206Z,19.70
2022-10-26T13:31:31.497Z,19.90
2022-10-26T13:34:17.866Z,19.70
2022-10-26T13:37:12.214Z,19.90
2022-10-26T13:39:43.665Z,19.90
2022-10-26T13:42:20.749Z,20.00
2022-10-26T13:44:55.757Z,20.30
2022-10-26T13:47:37.804Z,20.60
2022-10-26T13:50:08.596Z,20.50
2022-10-26T13:52:41.062Z,20.70
2022-10-26T13:55:10.968Z,20.90
2022-10-26T13:57:43.969Z,20.60
2022-10-26T14:00:21.129Z,20.70
2022-10-26T14:02:49.262Z,20.60
2022-10-26T14:05:18.887Z,20.70
2022-10-26T14:07:57.458Z,20.50
2022-10-26T14:10:41.580Z,20.70
2022-10-26T14:13:13.090Z,20.30
2022-10-26T14:15:44.301Z,20.30
2022-10-26T14:18:31.396Z,20.10
2022-10-26T14:21:06.882Z,19.90
2022-10-26T14:23:36.858Z,19.90
2022-10-26T14:26:05.222Z,20.30
2022-10-26T14:28:40.118Z,20.20
2022-10-26T14:31:27.813Z,20.40
2022-10-26T14:33:56.685Z,20.30
2022-10-26T14:36:47.805Z,20.50
2022-10-26T14:39:34.864Z,20.80
2022-10-26T14:42:12.211Z,21.20
2022-10-26T14:47:31.833Z,21.50
2022-10-26T14:52:35.729Z,21.00
2022-10-26T14:55:15.586Z,21.20
2022-10-26T14:57:45.402Z,21.00
2022-10-26T15:00:24.882Z,20.90
2022-10-26T15:02:58.985Z,20.60
2022-10-26T15:05:35.752Z,20.70
2022-10-26T15:08:03.529Z,20.90
2022-10-26T15:10:37.041Z,21.10
2022-10-26T15:13:10.319Z,21.20
2022-10-26T15:15:39.755Z,21.10
2022-10-26T15:18:23.720Z,21.20
2022-10-26T15:20:53.050Z,21.20
2022-10-26T15:23:22.705Z,20.90
2022-10-26T15:25:57.468Z,20.70
2022-10-26T15:28:30.882Z,20.90
2022-10-26T15:31:10.429Z,20.80
2022-10-26T15:33:50.941Z,20.90
2022-10-26T15:36:22.118Z,20.90
2022-10-26T15:38:49.530Z,20.70
2022-10-26T15:41:32.470Z,20.50
2022-10-26T15:44:05.963Z,20.60
2022-10-26T15:46:36.051Z,20.50
2022-10-26T15:49:05.582Z,20.30
2022-10-26T15:51:33.346Z,20.30
2022-10-26T15:54:04.377Z,20.00
2022-10-26T15:56:31.891Z,20.30
2022-10-26T16:01:29.039Z,19.60
2022-10-26T16:03:56.421Z,19.80
2022-10-26T16:06:29.597Z,19.70
2022-10-26T16:09:02.349Z,19.40
2022-10-26T16:11:30.224Z,19.10
2022-10-26T16:14:01.045Z,18.80
2022-10-26T16:16:32.382Z,18.60
2022-10-26T16:19:18.438Z,18.50
2022-10-26T16:21:50.752Z,18.30
2022-10-26T16:24:18.138Z,18.20
2022-10-26T16:26:45.840Z,18.10
2022-10-26T16:29:13.248Z,18.00
2022-10-26T16:31:40.492Z,17.90
2022-10-26T16:34:07.918Z,17.80
2022-10-26T16:36:35.323Z,17.70
2022-10-26T16:41:35.065Z,17.60
2022-10-26T16:46:30.149Z,17.50
2022-10-26T16:48:57.463Z,17.40
2022-10-26T16:51:26.836Z,17.40
2022-10-26T16:53:56.840Z,17.40
2022-10-26T16:56:26.822Z,17.20
2022-10-26T16:58:54.366Z,16.90
2022-10-26T17:03:51.704Z,17.00
2022-10-26T17:06:19.771Z,16.60
2022-10-26T17:11:20.199Z,17.10
2022-10-26T17:13:48.662Z,17.00
2022-10-26T17:16:21.282Z,16.90
2022-10-26T17:21:18.915Z,16.50
2022-10-26T17:26:15.049Z,16.90
2022-10-26T17:31:15.162Z,16.70
2022-10-26T17:33:45.272Z,16.70
2022-10-26T17:36:13.952Z,16.80
2022-10-26T17:38:42.693Z,16.50
2022-10-26T17:41:14.886Z,16.50
2022-10-26T17:43:43.540Z,16.50
2022-10-26T17:46:13.735Z,16.50
2022-10-26T17:51:16.261Z,16.40
2022-10-26T17:56:16.309Z,16.40
2022-10-26T17:58:43.659Z,16.40
2022-10-26T18:01:13.427Z,16.40
2022-10-26T18:03:42.039Z,16.40
2022-10-26T18:06:09.644Z,16.40
2022-10-26T18:08:38.437Z,16.30
2022-10-26T18:11:07.638Z,16.30
2022-10-26T18:16:12.147Z,16.20
2022-10-26T18:18:41.308Z,16.20
2022-10-26T18:21:13.218Z,16.20
2022-10-26T18:23:40.592Z,16.20
2022-10-26T18:26:19.462Z,16.30
2022-10-26T18:31:17.226Z,16.20
2022-10-26T18:36:17.380Z,16.10
2022-10-26T18:38:47.377Z,16.10
2022-10-26T18:41:16.483Z,16.00
2022-10-26T18:43:46.037Z,16.10
2022-10-26T18:46:18.989Z,16.00
2022-10-26T18:48:49.092Z,16.00
2022-10-26T18:51:18.901Z,15.90
2022-10-26T18:53:47.272Z,15.90
2022-10-26T18:56:17.356Z,15.90
2022-10-26T18:58:48.294Z,15.70
2022-10-26T19:01:23.868Z,15.90
2022-10-26T19:03:56.662Z,15.80
2022-10-26T19:06:29.641Z,15.80
2022-10-26T19:08:57.923Z,15.80
2022-10-26T19:11:27.424Z,15.70
2022-10-26T19:13:55.170Z,15.70
2022-10-26T19:19:17.001Z,15.80
2022-10-26T19:21:46.241Z,15.60
2022-10-26T19:24:25.341Z,15.70
2022-10-26T19:26:54.086Z,15.60
2022-10-26T19:29:21.557Z,15.60
2022-10-26T19:31:52.770Z,15.60
2022-10-26T19:34:20.362Z,15.60
2022-10-26T19:36:47.834Z,15.60
2022-10-26T19:39:16.928Z,15.60
2022-10-26T19:41:45.594Z,15.60
2022-10-26T19:44:14.338Z,15.60
2022-10-26T19:46:43.392Z,15.50
2022-10-26T19:49:12.541Z,15.50
2022-10-26T19:51:40.175Z,15.50
2022-10-26T19:54:07.636Z,15.40
2022-10-26T19:56:36.757Z,15.40
2022-10-26T19:59:05.154Z,15.40
2022-10-26T20:01:32.937Z,15.30
2022-10-26T20:04:02.457Z,15.30
2022-10-26T20:06:31.150Z,15.30
2022-10-26T20:08:59.816Z,15.20
2022-10-26T20:11:27.245Z,15.20
2022-10-26T20:13:56.345Z,15.20
2022-10-26T20:16:24.193Z,15.20
2022-10-26T20:18:51.706Z,15.10
2022-10-26T20:21:19.194Z,15.10
2022-10-26T20:23:47.161Z,15.10
2022-10-26T20:26:18.990Z,15.00
2022-10-26T20:28:50.997Z,15.00
2022-10-26T20:31:20.000Z,15.00
2022-10-26T20:33:52.612Z,14.90
2022-10-26T20:36:20.502Z,14.90
2022-10-26T20:38:48.233Z,14.80
2022-10-26T20:41:16.418Z,14.80
2022-10-26T20:43:44.346Z,14.80
2022-10-26T20:46:18.978Z,14.80
2022-10-26T20:48:46.641Z,14.80
2022-10-26T20:51:26.302Z,14.80
2022-10-26T20:54:04.265Z,14.80
2022-10-26T20:56:33.664Z,14.80
2022-10-26T20:59:03.110Z,14.90
2022-10-26T21:01:32.908Z,15.20
2022-10-26T21:04:02.952Z,15.00
2022-10-26T21:06:40.242Z,14.90
2022-10-26T21:09:08.915Z,15.00
2022-10-26T21:11:36.513Z,15.10
2022-10-26T21:14:05.540Z,15.10
2022-10-26T21:16:33.140Z,15.10
2022-10-26T21:19:00.612Z,15.10
2022-10-26T21:21:27.930Z,15.10
2022-10-26T21:23:55.482Z,15.10
2022-10-26T21:26:22.786Z,15.10
2022-10-26T21:28:50.276Z,15.10
2022-10-26T21:31:18.852Z,15.00
2022-10-26T21:33:46.782Z,15.00
2022-10-26T21:36:15.138Z,15.00
2022-10-26T21:38:44.207Z,15.00
2022-10-26T21:41:19.887Z,14.90
2022-10-26T21:43:59.234Z,14.90
2022-10-26T21:46:37.920Z,14.90
2022-10-26T21:49:05.790Z,14.80
2022-10-26T21:51:33.567Z,14.80
2022-10-26T21:54:01.049Z,14.80
2022-10-26T21:56:28.466Z,14.70
2022-10-26T22:01:23.701Z,14.30
2022-10-26T22:11:19.951Z,14.50
2022-10-26T22:13:49.447Z,14.40
2022-10-26T22:16:28.104Z,14.40
2022-10-26T22:18:57.838Z,14.40
2022-10-26T22:21:27.729Z,14.40
2022-10-26T22:23:55.368Z,14.70
2022-10-26T22:26:24.632Z,14.40
2022-10-26T22:28:54.171Z,14.40
2022-10-26T22:31:32.608Z,14.30
2022-10-26T22:34:07.706Z,14.50
2022-10-26T22:36:36.333Z,14.70
2022-10-26T22:39:04.120Z,14.70
2022-10-26T22:43:59.013Z,14.80
2022-10-26T22:46:27.834Z,14.80
2022-10-26T22:48:57.278Z,14.80
2022-10-26T22:51:28.479Z,14.80
2022-10-26T22:53:57.966Z,14.80
2022-10-26T22:58:59.620Z,14.80
2022-10-26T23:01:31.368Z,14.80
2022-10-26T23:03:59.786Z,14.70
2022-10-26T23:06:29.364Z,14.70
2022-10-26T23:08:57.174Z,14.70
2022-10-26T23:11:27.361Z,14.60
2022-10-26T23:18:53.227Z,14.30
2022-10-26T23:23:53.750Z,14.30
2022-10-26T23:26:21.492Z,14.20
2022-10-26T23:28:49.409Z,14.20
2022-10-26T23:31:22.412Z,14.30
2022-10-26T23:33:51.323Z,14.30
2022-10-26T23:36:19.532Z,14.40
2022-10-26T23:38:47.568Z,14.50
2022-10-26T23:41:15.369Z,14.60
2022-10-26T23:43:42.660Z,14.70
2022-10-26T23:46:10.100Z,14.70
2022-10-26T23:48:37.835Z,14.70
2022-10-26T23:51:05.477Z,14.80
2022-10-26T23:53:32.792Z,14.80
2022-10-26T23:56:00.093Z,14.80
2022-10-26T23:58:27.359Z,14.90
